createdAt,value
2023-02-14T00:01:58.068Z,4.00
2023-02-14T00:04:25.379Z,3.90
2023-02-14T00:06:51.926Z,3.80
2023-02-14T00:09:19.123Z,3.80
2023-02-14T00:11:45.798Z,3.80
2023-02-14T00:14:33.136Z,3.90
2023-02-14T00:16:59.847Z,3.90
2023-02-14T00:19:26.430Z,3.80
2023-02-14T00:21:53.006Z,3.70
2023-02-14T00:24:21.178Z,3.70
2023-02-14T00:26:48.314Z,3.70
2023-02-14T00:29:16.403Z,3.70
2023-02-14T00:31:43.418Z,3.60
2023-02-14T00:34:10.767Z,3.60
2023-02-14T00:36:37.888Z,3.50
2023-02-14T00:39:04.905Z,3.50
2023-02-14T00:41:31.489Z,3.50
2023-02-14T00:43:58.155Z,3.40
2023-02-14T00:46:25.509Z,3.40
2023-02-14T00:48:52.433Z,3.30
2023-02-14T00:51:19.409Z,3.30
2023-02-14T00:53:46.629Z,3.30
2023-02-14T00:56:13.416Z,3.30
2023-02-14T00:58:40.244Z,3.30
2023-02-14T01:01:07.427Z,3.30
2023-02-14T01:03:34.128Z,3.30
2023-02-14T01:06:00.742Z,3.30
2023-02-14T01:08:27.397Z,3.20
2023-02-14T01:10:54.030Z,3.10
2023-02-14T01:13:20.674Z,3.10
2023-02-14T01:15:48.628Z,3.20
2023-02-14T01:18:15.836Z,3.20
2023-02-14T01:20:42.529Z,3.20
2023-02-14T01:23:09.269Z,3.30
2023-02-14T01:25:39.404Z,3.20
2023-02-14T01:28:06.441Z,3.30
2023-02-14T01:30:33.003Z,3.30
2023-02-14T01:32:59.547Z,3.20
2023-02-14T01:35:26.089Z,3.20
2023-02-14T01:37:52.582Z,3.20
2023-02-14T01:40:19.307Z,3.10
2023-02-14T01:42:45.831Z,3.10
2023-02-14T01:45:20.123Z,3.10
2023-02-14T01:47:48.119Z,3.00
2023-02-14T01:50:16.695Z,3.00
2023-02-14T01:52:55.341Z,3.00
2023-02-14T01:55:23.810Z,2.90
2023-02-14T01:57:53.080Z,2.90
2023-02-14T02:00:38.892Z,2.90
2023-02-14T02:03:06.851Z,2.90
2023-02-14T02:05:34.202Z,2.90
2023-02-14T02:08:01.390Z,2.80
2023-02-14T02:10:28.517Z,2.80
2023-02-14T02:12:55.472Z,2.80
2023-02-14T02:15:23.700Z,2.70
2023-02-14T02:18:00.630Z,2.70
2023-02-14T02:20:42.375Z,2.70
2023-02-14T02:23:19.374Z,2.60
2023-02-14T02:25:55.028Z,2.60
2023-02-14T02:28:34.254Z,2.60
2023-02-14T02:31:20.982Z,2.60
2023-02-14T02:33:57.048Z,2.60
2023-02-14T02:36:42.101Z,2.50
2023-02-14T02:39:17.757Z,2.50
2023-02-14T02:41:48.435Z,2.50
2023-02-14T02:44:21.476Z,2.60
2023-02-14T02:46:59.698Z,2.50
2023-02-14T02:50:05.443Z,2.50
2023-02-14T02:53:05.044Z,2.50
2023-02-14T02:55:59.225Z,2.50
2023-02-14T02:58:31.206Z,2.50
2023-02-14T03:00:59.972Z,2.50
2023-02-14T03:03:46.602Z,2.50
2023-02-14T03:06:13.325Z,2.50
2023-02-14T03:08:43.964Z,2.40
2023-02-14T03:11:18.190Z,2.40
2023-02-14T03:14:10.517Z,2.40
2023-02-14T03:16:46.847Z,2.30
2023-02-14T03:19:38.965Z,2.40
2023-02-14T03:22:24.443Z,2.40
2023-02-14T03:25:01.825Z,2.50
2023-02-14T03:27:32.816Z,2.50
2023-02-14T03:30:14.076Z,2.50
2023-02-14T03:32:51.831Z,2.50
2023-02-14T03:35:26.897Z,2.50
2023-02-14T03:37:53.483Z,2.50
2023-02-14T03:40:26.060Z,2.40
2023-02-14T03:43:00.693Z,2.40
2023-02-14T03:45:40.318Z,2.40
2023-02-14T03:48:09.106Z,2.40
2023-02-14T03:50:36.589Z,2.50
2023-02-14T03:53:04.067Z,2.50
2023-02-14T03:55:34.583Z,2.50
2023-02-14T03:58:14.678Z,2.50
2023-02-14T04:00:41.942Z,2.60
2023-02-14T04:03:11.994Z,2.60
2023-02-14T04:05:42.191Z,2.60
2023-02-14T04:08:09.854Z,2.70
2023-02-14T04:10:36.693Z,2.70
2023-02-14T04:13:03.326Z,2.70
2023-02-14T04:15:29.936Z,2.70
2023-02-14T04:18:03.721Z,2.70
2023-02-14T04:20:30.455Z,2.70
2023-02-14T04:22:57.574Z,2.70
2023-02-14T04:25:24.270Z,2.70
2023-02-14T04:27:51.064Z,2.70
2023-02-14T04:30:18.057Z,2.70
2023-02-14T04:32:44.705Z,2.60
2023-02-14T04:35:11.428Z,2.60
2023-02-14T04:37:38.242Z,2.50
2023-02-14T04:40:05.184Z,2.50
2023-02-14T04:42:31.787Z,2.50
2023-02-14T04:44:58.826Z,2.50
2023-02-14T04:47:25.539Z,2.60
2023-02-14T04:49:52.124Z,2.60
2023-02-14T04:52:18.681Z,2.60
2023-02-14T04:54:45.216Z,2.60
2023-02-14T04:57:11.713Z,2.60
2023-02-14T04:59:38.359Z,2.70
2023-02-14T05:02:04.981Z,2.70
2023-02-14T05:04:31.648Z,2.70
2023-02-14T05:06:58.269Z,2.70
2023-02-14T05:09:24.885Z,2.80
2023-02-14T05:11:51.558Z,2.70
2023-02-14T05:14:18.238Z,2.80
2023-02-14T05:16:44.896Z,2.80
2023-02-14T05:19:11.618Z,2.70
2023-02-14T05:21:38.650Z,2.70
2023-02-14T05:24:05.306Z,2.70
2023-02-14T05:26:31.877Z,2.70
2023-02-14T05:28:58.552Z,2.70
2023-02-14T05:31:25.228Z,2.70
2023-02-14T05:33:51.892Z,2.70
2023-02-14T05:36:18.443Z,2.70
2023-02-14T05:38:45.097Z,2.70
2023-02-14T05:41:11.681Z,2.70
2023-02-14T05:43:38.299Z,2.80
2023-02-14T05:46:05.120Z,2.70
2023-02-14T05:48:31.867Z,2.80
2023-02-14T05:51:02.610Z,2.90
2023-02-14T05:53:29.174Z,2.80
2023-02-14T05:55:55.702Z,2.80
2023-02-14T05:58:22.609Z,2.80
2023-02-14T06:00:49.216Z,2.90
2023-02-14T06:03:15.818Z,2.90
2023-02-14T06:05:42.368Z,3.00
2023-02-14T06:08:08.932Z,3.00
2023-02-14T06:10:35.541Z,3.00
2023-02-14T06:13:02.135Z,3.10
2023-02-14T06:15:28.693Z,3.10
2023-02-14T06:17:56.032Z,3.10
2023-02-14T06:20:24.020Z,3.20
2023-02-14T06:22:52.665Z,3.30
2023-02-14T06:25:19.781Z,3.30
2023-02-14T06:27:48.875Z,3.50
2023-02-14T06:30:16.405Z,3.60
2023-02-14T06:32:43.044Z,3.60
2023-02-14T06:35:10.072Z,3.60
2023-02-14T06:37:38.651Z,3.70
2023-02-14T06:40:05.539Z,3.70
2023-02-14T06:42:32.135Z,3.70
2023-02-14T06:44:59.916Z,3.70
2023-02-14T06:47:26.627Z,3.70
2023-02-14T06:49:53.166Z,3.70
2023-02-14T06:52:20.096Z,3.60
2023-02-14T06:54:46.759Z,3.60
2023-02-14T06:57:13.527Z,3.60
2023-02-14T06:59:40.100Z,3.60
2023-02-14T07:02:06.700Z,3.60
2023-02-14T07:04:33.306Z,3.50
2023-02-14T07:07:01.421Z,3.60
2023-02-14T07:09:28.139Z,3.60
2023-02-14T07:11:54.762Z,3.60
2023-02-14T07:14:21.454Z,3.60
2023-02-14T07:16:48.086Z,3.50
2023-02-14T07:19:14.702Z,3.50
2023-02-14T07:21:41.506Z,3.60
2023-02-14T07:24:08.120Z,3.60
2023-02-14T07:26:34.755Z,3.70
2023-02-14T07:29:01.386Z,3.70
2023-02-14T07:31:28.122Z,3.70
2023-02-14T07:33:54.973Z,3.80
2023-02-14T07:36:28.042Z,3.80
2023-02-14T07:38:57.907Z,3.80
2023-02-14T07:41:24.571Z,3.90
2023-02-14T07:43:51.275Z,3.90
2023-02-14T07:46:18.432Z,4.00
2023-02-14T07:48:45.084Z,4.00
2023-02-14T07:51:11.786Z,4.10
2023-02-14T07:53:38.411Z,4.20
2023-02-14T07:56:05.172Z,4.20
2023-02-14T07:58:31.834Z,4.30
2023-02-14T08:00:58.895Z,4.40
2023-02-14T08:03:25.645Z,4.40
2023-02-14T08:05:57.118Z,4.40
2023-02-14T08:08:25.121Z,4.50
2023-02-14T08:10:51.832Z,4.60
2023-02-14T08:13:18.590Z,4.60
2023-02-14T08:16:03.720Z,4.70
2023-02-14T08:18:31.235Z,4.80
2023-02-14T08:20:58.141Z,4.80
2023-02-14T08:23:25.135Z,4.90
2023-02-14T08:25:52.376Z,4.90
2023-02-14T08:28:20.834Z,5.00
2023-02-14T08:30:47.484Z,5.00
2023-02-14T08:33:14.074Z,5.10
2023-02-14T08:35:40.756Z,5.20
2023-02-14T08:38:07.490Z,5.20
2023-02-14T08:40:35.100Z,5.30
2023-02-14T08:43:01.736Z,5.40
2023-02-14T08:45:28.460Z,5.50
2023-02-14T08:47:55.127Z,5.60
2023-02-14T08:50:22.018Z,5.80
2023-02-14T08:52:48.681Z,5.70
2023-02-14T08:55:15.408Z,5.90
2023-02-14T08:57:44.497Z,6.00
2023-02-14T09:00:11.541Z,6.10
2023-02-14T09:02:38.162Z,6.50
2023-02-14T09:05:06.113Z,7.70
2023-02-14T09:07:34.849Z,8.40
2023-02-14T09:10:01.649Z,8.70
2023-02-14T09:12:28.211Z,9.10
2023-02-14T09:14:55.241Z,9.40
2023-02-14T09:17:21.941Z,9.30
2023-02-14T09:19:48.567Z,9.30
2023-02-14T09:22:15.225Z,9.40
2023-02-14T09:24:41.926Z,9.40
2023-02-14T09:27:09.087Z,9.10
2023-02-14T09:29:35.801Z,9.10
2023-02-14T09:32:02.818Z,9.90
2023-02-14T09:34:30.090Z,10.20
2023-02-14T09:36:56.945Z,10.60
2023-02-14T09:39:23.681Z,10.50
2023-02-14T09:42:01.344Z,10.80
2023-02-14T09:44:32.637Z,11.20
2023-02-14T09:47:02.701Z,11.10
2023-02-14T09:49:33.855Z,10.50
2023-02-14T09:52:02.044Z,10.50
2023-02-14T09:54:29.507Z,10.20
2023-02-14T09:57:00.773Z,10.20
2023-02-14T09:59:43.998Z,11.20
2023-02-14T10:02:33.299Z,11.80
2023-02-14T10:05:06.683Z,11.90
2023-02-14T10:07:38.920Z,12.50
2023-02-14T10:10:05.559Z,12.40
2023-02-14T10:12:38.020Z,12.40
2023-02-14T10:15:07.651Z,11.70
2023-02-14T10:17:34.274Z,11.30
2023-02-14T10:20:02.855Z,11.30
2023-02-14T10:22:35.020Z,11.50
2023-02-14T10:25:03.460Z,11.80
2023-02-14T10:27:33.017Z,12.80
2023-02-14T10:29:59.728Z,12.60
2023-02-14T10:32:37.722Z,12.40
2023-02-14T10:35:11.484Z,12.50
2023-02-14T10:37:48.018Z,12.80
2023-02-14T10:40:17.666Z,13.20
2023-02-14T10:43:10.597Z,13.60
2023-02-14T10:45:50.323Z,13.50
2023-02-14T10:48:37.345Z,13.20
2023-02-14T10:51:16.335Z,13.80
2023-02-14T10:54:01.426Z,13.90
2023-02-14T10:56:48.212Z,12.90
2023-02-14T10:59:39.247Z,12.70
2023-02-14T11:02:08.364Z,13.20
2023-02-14T11:04:35.520Z,12.80
2023-02-14T11:07:02.254Z,12.10
2023-02-14T11:09:28.950Z,12.80
2023-02-14T11:11:59.840Z,13.50
2023-02-14T11:14:29.941Z,13.60
2023-02-14T11:16:57.665Z,12.90
2023-02-14T11:19:38.774Z,12.40
2023-02-14T11:22:06.014Z,12.00
2023-02-14T11:24:36.830Z,12.60
2023-02-14T11:27:12.233Z,12.30
2023-02-14T11:29:38.810Z,12.10
2023-02-14T11:32:16.328Z,12.40
2023-02-14T11:34:48.297Z,12.20
2023-02-14T11:37:25.797Z,12.30
2023-02-14T11:39:54.904Z,12.30
2023-02-14T11:42:33.463Z,12.20
2023-02-14T11:45:00.136Z,12.10
2023-02-14T11:47:28.199Z,12.50
2023-02-14T11:49:56.390Z,12.30
2023-02-14T11:52:26.754Z,12.20
2023-02-14T11:54:53.881Z,12.00
2023-02-14T11:57:33.447Z,12.50
2023-02-14T12:00:07.396Z,12.20
2023-02-14T12:02:39.321Z,12.00
2023-02-14T12:05:16.100Z,12.50
2023-02-14T12:07:44.106Z,12.50
2023-02-14T12:10:10.805Z,12.40
2023-02-14T12:12:37.457Z,12.50
2023-02-14T12:15:22.824Z,12.50
2023-02-14T12:17:51.659Z,12.80
2023-02-14T12:20:23.871Z,12.30
2023-02-14T12:22:55.492Z,12.40
2023-02-14T12:25:27.200Z,12.10
2023-02-14T12:27:56.548Z,12.20
2023-02-14T12:30:24.710Z,12.30
2023-02-14T12:32:52.575Z,12.80
2023-02-14T12:35:19.169Z,13.00
2023-02-14T12:38:05.011Z,13.30
2023-02-14T12:41:01.588Z,13.50
2023-02-14T12:43:28.336Z,13.40
2023-02-14T12:45:55.003Z,13.00
2023-02-14T12:48:28.870Z,13.10
2023-02-14T12:51:01.694Z,13.20
2023-02-14T12:53:31.317Z,13.40
2023-02-14T12:56:00.752Z,13.40
2023-02-14T12:58:46.232Z,13.60
2023-02-14T13:01:13.239Z,13.80
2023-02-14T13:03:53.218Z,14.20
2023-02-14T13:06:25.842Z,14.20
2023-02-14T13:08:52.678Z,14.60
2023-02-14T13:11:29.049Z,14.60
2023-02-14T13:14:04.485Z,14.20
2023-02-14T13:16:31.606Z,14.40
2023-02-14T13:19:09.491Z,14.40
2023-02-14T13:21:37.656Z,14.70
2023-02-14T13:24:12.715Z,15.10
2023-02-14T13:26:41.506Z,15.00
2023-02-14T13:29:13.594Z,14.80
2023-02-14T13:31:41.292Z,14.60
2023-02-14T13:34:16.726Z,14.80
2023-02-14T13:36:43.910Z,14.90
2023-02-14T13:39:16.727Z,14.90
2023-02-14T13:41:43.341Z,15.00
2023-02-14T13:44:09.944Z,15.00
2023-02-14T13:46:36.885Z,15.40
2023-02-14T13:49:20.715Z,15.40
2023-02-14T13:51:51.671Z,15.70
2023-02-14T13:54:22.226Z,15.90
2023-02-14T13:56:49.041Z,15.80
2023-02-14T13:59:27.159Z,15.50
2023-02-14T14:01:54.666Z,15.70
2023-02-14T14:04:31.630Z,15.50
2023-02-14T14:07:04.299Z,15.20
2023-02-14T14:09:51.123Z,14.60
2023-02-14T14:12:27.086Z,14.80
2023-02-14T14:15:06.094Z,15.10
2023-02-14T14:17:34.372Z,15.30
2023-02-14T14:20:01.719Z,15.00
2023-02-14T14:22:28.600Z,14.80
2023-02-14T14:24:56.623Z,14.80
2023-02-14T14:27:26.341Z,14.80
2023-02-14T14:29:59.045Z,14.70
2023-02-14T14:32:38.319Z,14.60
2023-02-14T14:35:04.990Z,14.80
2023-02-14T14:37:33.195Z,15.40
2023-02-14T14:40:00.866Z,15.70
2023-02-14T14:42:29.410Z,15.80
2023-02-14T14:44:57.951Z,15.60
2023-02-14T14:47:25.750Z,15.50
2023-02-14T14:49:53.620Z,15.20
2023-02-14T14:52:30.650Z,14.60
2023-02-14T14:54:58.310Z,14.40
2023-02-14T14:57:25.080Z,14.30
2023-02-14T15:00:06.086Z,14.70
2023-02-14T15:02:32.855Z,14.60
2023-02-14T15:05:10.445Z,14.80
2023-02-14T15:07:37.790Z,14.60
2023-02-14T15:10:20.382Z,14.80
2023-02-14T15:13:05.821Z,14.80
2023-02-14T15:15:32.391Z,15.20
2023-02-14T15:17:59.125Z,15.40
2023-02-14T15:20:26.371Z,15.50
2023-02-14T15:22:53.513Z,15.00
2023-02-14T15:25:21.746Z,14.70
2023-02-14T15:27:48.574Z,14.90
2023-02-14T15:30:25.066Z,13.90
2023-02-14T15:32:52.422Z,13.00
2023-02-14T15:35:22.704Z,12.50
2023-02-14T15:37:50.290Z,12.50
2023-02-14T15:40:22.568Z,12.70
2023-02-14T15:42:49.486Z,13.10
2023-02-14T15:45:42.728Z,13.40
2023-02-14T15:48:15.094Z,13.50
2023-02-14T15:50:47.693Z,13.40
2023-02-14T15:53:17.250Z,13.60
2023-02-14T15:55:44.590Z,13.60
2023-02-14T15:58:21.731Z,13.30
2023-02-14T16:00:48.749Z,12.80
2023-02-14T16:03:24.454Z,13.00
2023-02-14T16:05:51.085Z,12.90
2023-02-14T16:08:29.719Z,13.10
2023-02-14T16:11:02.654Z,13.30
2023-02-14T16:13:30.957Z,12.60
2023-02-14T16:16:07.471Z,12.40
2023-02-14T16:18:34.074Z,12.30
2023-02-14T16:21:11.146Z,11.80
2023-02-14T16:23:38.087Z,11.20
2023-02-14T16:26:07.802Z,10.80
2023-02-14T16:28:34.842Z,10.50
2023-02-14T16:31:06.081Z,10.30
2023-02-14T16:33:34.666Z,10.20
2023-02-14T16:36:06.181Z,10.10
2023-02-14T16:38:34.912Z,9.90
2023-02-14T16:41:02.910Z,9.80
2023-02-14T16:43:29.493Z,9.60
2023-02-14T16:45:56.014Z,9.50
2023-02-14T16:48:22.613Z,9.50
2023-02-14T16:50:49.202Z,9.30
2023-02-14T16:53:22.317Z,9.20
2023-02-14T16:55:48.857Z,9.20
2023-02-14T16:58:15.681Z,9.10
2023-02-14T17:00:42.239Z,9.10
2023-02-14T17:03:11.289Z,9.00
2023-02-14T17:05:39.134Z,8.90
2023-02-14T17:08:06.648Z,8.80
2023-02-14T17:10:33.568Z,8.80
2023-02-14T17:13:01.278Z,8.70
2023-02-14T17:15:28.796Z,8.60
2023-02-14T17:17:58.915Z,8.50
2023-02-14T17:20:25.651Z,8.40
2023-02-14T17:22:52.232Z,8.30
2023-02-14T17:25:18.792Z,8.30
2023-02-14T17:27:46.312Z,8.20
2023-02-14T17:30:14.180Z,8.10
2023-02-14T17:32:41.128Z,8.00
2023-02-14T17:35:08.963Z,7.90
2023-02-14T17:37:36.072Z,7.80
2023-02-14T17:40:03.747Z,7.70
2023-02-14T17:42:33.635Z,7.70
2023-02-14T17:45:00.190Z,7.60
2023-02-14T17:47:26.852Z,7.50
2023-02-14T17:49:53.394Z,7.40
2023-02-14T17:52:21.987Z,7.40
2023-02-14T17:54:48.740Z,7.30
2023-02-14T17:57:15.414Z,7.30
2023-02-14T17:59:42.490Z,7.20
2023-02-14T18:02:09.434Z,7.10
2023-02-14T18:04:37.164Z,7.10
2023-02-14T18:07:04.335Z,7.00
2023-02-14T18:09:31.407Z,6.90
2023-02-14T18:11:58.662Z,6.80
2023-02-14T18:14:25.286Z,6.80
2023-02-14T18:16:51.887Z,6.70
2023-02-14T18:19:18.439Z,6.70
2023-02-14T18:21:45.368Z,6.60
2023-02-14T18:24:12.338Z,6.60
2023-02-14T18:26:40.465Z,6.50
2023-02-14T18:29:07.941Z,6.40
2023-02-14T18:31:35.525Z,6.40
2023-02-14T18:34:02.633Z,6.30
2023-02-14T18:36:29.581Z,6.30
2023-02-14T18:38:56.261Z,6.30
2023-02-14T18:41:23.298Z,6.20
2023-02-14T18:43:49.958Z,6.20
2023-02-14T18:46:17.838Z,6.10
2023-02-14T18:48:44.634Z,6.00
2023-02-14T18:51:12.680Z,6.00
2023-02-14T18:53:39.531Z,5.90
2023-02-14T18:56:07.056Z,5.90
2023-02-14T18:58:34.231Z,5.80
2023-02-14T19:01:08.195Z,5.80
2023-02-14T19:03:34.851Z,5.70
2023-02-14T19:06:01.536Z,5.70
2023-02-14T19:08:30.563Z,5.70
2023-02-14T19:10:57.162Z,5.60
2023-02-14T19:13:27.924Z,5.50
2023-02-14T19:15:57.513Z,5.50
2023-02-14T19:18:25.756Z,5.40
2023-02-14T19:20:52.985Z,5.40
2023-02-14T19:23:19.679Z,5.30
2023-02-14T19:25:46.331Z,5.30
2023-02-14T19:28:13.420Z,5.20
2023-02-14T19:30:39.997Z,5.20
2023-02-14T19:33:06.894Z,5.10
2023-02-14T19:35:33.440Z,5.10
2023-02-14T19:38:03.366Z,5.00
2023-02-14T19:40:30.780Z,5.00
2023-02-14T19:42:57.333Z,4.90
2023-02-14T19:45:23.868Z,4.90
2023-02-14T19:47:50.676Z,4.90
2023-02-14T19:50:19.455Z,4.80
2023-02-14T19:52:46.913Z,4.80
2023-02-14T19:55:20.776Z,4.80
2023-02-14T19:57:47.998Z,4.80
2023-02-14T20:00:15.985Z,4.80
2023-02-14T20:02:47.825Z,4.70
2023-02-14T20:05:18.279Z,4.60
2023-02-14T20:07:45.215Z,4.60
2023-02-14T20:10:12.286Z,4.60
2023-02-14T20:12:38.874Z,4.60
2023-02-14T20:15:05.657Z,4.60
2023-02-14T20:17:32.782Z,4.60
2023-02-14T20:19:59.422Z,4.60
2023-02-14T20:22:26.232Z,4.50
2023-02-14T20:24:52.815Z,4.50
2023-02-14T20:27:19.873Z,4.50
2023-02-14T20:29:46.442Z,4.50
2023-02-14T20:32:14.865Z,4.50
2023-02-14T20:34:42.848Z,4.50
2023-02-14T20:37:10.965Z,4.50
2023-02-14T20:39:37.945Z,4.50
2023-02-14T20:42:04.762Z,4.40
2023-02-14T20:44:31.345Z,4.40
2023-02-14T20:46:57.967Z,4.40
2023-02-14T20:49:25.603Z,4.40
2023-02-14T20:51:52.336Z,4.30
2023-02-14T20:54:19.697Z,4.30
2023-02-14T20:56:46.320Z,4.20
2023-02-14T20:59:13.395Z,4.20
2023-02-14T21:01:40.084Z,4.10
2023-02-14T21:04:06.940Z,4.10
2023-02-14T21:06:34.189Z,4.00
2023-02-14T21:09:00.936Z,4.00
2023-02-14T21:11:28.117Z,4.00
2023-02-14T21:13:59.843Z,3.90
2023-02-14T21:16:27.346Z,3.90
2023-02-14T21:19:00.757Z,3.80
2023-02-14T21:21:32.479Z,3.80
2023-02-14T21:24:00.138Z,3.80
2023-02-14T21:26:27.156Z,3.70
2023-02-14T21:28:53.735Z,3.70
2023-02-14T21:31:20.985Z,3.70
2023-02-14T21:33:51.415Z,3.60
2023-02-14T21:36:18.900Z,3.60
2023-02-14T21:38:45.580Z,3.60
2023-02-14T21:41:13.904Z,3.50
2023-02-14T21:43:41.834Z,3.50
2023-02-14T21:46:10.027Z,3.50
2023-02-14T21:48:55.284Z,3.40
2023-02-14T21:51:22.190Z,3.40
2023-02-14T21:53:49.142Z,3.30
2023-02-14T21:56:19.827Z,3.30
2023-02-14T21:58:47.134Z,3.30
2023-02-14T22:01:18.223Z,3.30
2023-02-14T22:03:44.769Z,3.30
2023-02-14T22:06:13.139Z,3.30
2023-02-14T22:08:39.891Z,3.30
2023-02-14T22:11:07.790Z,3.30
2023-02-14T22:13:34.696Z,3.30
2023-02-14T22:16:05.597Z,3.30
2023-02-14T22:18:32.456Z,3.20
2023-02-14T22:21:00.540Z,3.20
2023-02-14T22:23:29.153Z,3.20
2023-02-14T22:25:55.731Z,3.20
2023-02-14T22:28:22.232Z,3.20
2023-02-14T22:30:48.773Z,3.20
2023-02-14T22:33:15.243Z,3.10
2023-02-14T22:35:41.811Z,3.10
2023-02-14T22:38:08.400Z,3.10
2023-02-14T22:40:35.571Z,3.10
2023-02-14T22:43:02.119Z,3.10
2023-02-14T22:45:28.614Z,3.10
2023-02-14T22:47:55.126Z,3.10
2023-02-14T22:50:21.635Z,3.10
2023-02-14T22:52:48.174Z,3.10
2023-02-14T22:55:14.791Z,3.10
2023-02-14T22:57:41.344Z,3.10
2023-02-14T23:00:11.558Z,3.00
2023-02-14T23:02:38.556Z,3.00
2023-02-14T23:05:05.347Z,3.00
2023-02-14T23:07:31.837Z,3.00
2023-02-14T23:09:58.377Z,3.00
2023-02-14T23:12:43.564Z,3.00
2023-02-14T23:15:28.466Z,3.00
2023-02-14T23:18:13.476Z,3.00
2023-02-14T23:20:58.553Z,3.00
2023-02-14T23:23:25.108Z,2.90
2023-02-14T23:25:51.661Z,2.80
2023-02-14T23:28:18.256Z,2.80
2023-02-14T23:30:44.804Z,2.70
2023-02-14T23:33:11.301Z,2.60
2023-02-14T23:35:37.910Z,2.60
2023-02-14T23:38:04.457Z,2.60
2023-02-14T23:40:51.022Z,2.60
2023-02-14T23:43:17.564Z,2.60
2023-02-14T23:45:44.240Z,2.50
2023-02-14T23:48:10.956Z,2.40
2023-02-14T23:50:38.280Z,2.40
2023-02-14T23:53:04.923Z,2.40
2023-02-14T23:55:31.990Z,2.50
2023-02-14T23:57:58.595Z,2.50
